Time;durP1;ratioP1;P1;durP2;ratioP2;P2;SDS_P1;SDS_P2;PMS_P1;PMS_P2;Temp;Humidity;BMP_temperature;BMP_pressure;BME280_temperature;BME280_humidity;BME280_pressure;Samples;Min_cycle;Max_cycle;Signal;HPM_P1;HPM_P2
2023/01/12 00:00:38;;;;;;;5.57;2.22;;;;;;;;;;5067608;28;20411;-76
2023/01/12 00:03:09;;;;;;;6.65;2.80;;;;;;;;;;5066868;28;20037;-75
2023/01/12 00:05:39;;;;;;;3.78;2.25;;;;;;;;;;5065863;28;20404;-76
2023/01/12 00:08:09;;;;;;;6.32;2.72;;;;;;;;;;5048452;28;20519;-76
2023/01/12 00:10:39;;;;;;;4.68;1.98;;;;;;;;;;5066312;28;20055;-75
2023/01/12 00:13:12;;;;;;;6.07;2.53;;;;;;;;;;5066415;28;20044;-75
2023/01/12 00:18:32;;;;;;;5.85;2.30;;;;;;;;;;5066562;28;20075;-75
2023/01/12 00:21:01;;;;;;;5.55;2.60;;;;;;;;;;5066073;28;20056;-76
2023/01/12 00:23:32;;;;;;;8.95;2.70;;;;;;;;;;5066655;28;20096;-76
2023/01/12 00:26:05;;;;;;;5.85;2.50;;;;;;;;;;5049471;28;20040;-77
2023/01/12 00:28:40;;;;;;;6.13;2.25;;;;;;;;;;5068195;28;20538;-75
2023/01/12 00:31:11;;;;;;;7.15;2.22;;;;;;;;;;5067281;28;20055;-76
2023/01/12 00:33:42;;;;;;;3.08;1.98;;;;;;;;;;5047953;28;20063;-77
2023/01/12 00:36:15;;;;;;;9.40;2.65;;;;;;;;;;5066682;28;20522;-75
2023/01/12 00:38:47;;;;;;;4.40;2.17;;;;;;;;;;5066930;28;20036;-75
2023/01/12 00:46:56;;;;;;;3.28;2.13;;;;;;;;;;5064693;28;20071;-76
2023/01/12 00:49:27;;;;;;;5.72;2.08;;;;;;;;;;5065527;28;20121;-75
2023/01/12 00:51:58;;;;;;;6.57;2.08;;;;;;;;;;5065820;28;20040;-75
2023/01/12 00:54:29;;;;;;;6.80;2.15;;;;;;;;;;5066142;28;20041;-76
2023/01/12 00:57:01;;;;;;;3.90;1.88;;;;;;;;;;5065964;28;20045;-76
2023/01/12 00:59:32;;;;;;;5.82;2.10;;;;;;;;;;5065517;28;20056;-76
2023/01/12 01:02:04;;;;;;;5.80;2.00;;;;;;;;;;5046165;28;20064;-76
2023/01/12 01:04:34;;;;;;;3.20;1.98;;;;;;;;;;5066166;28;20041;-76
2023/01/12 01:07:05;;;;;;;4.25;1.92;;;;;;;;;;5061658;28;20800;-76
2023/01/12 01:09:37;;;;;;;4.80;2.25;;;;;;;;;;5065831;28;20055;-75
2023/01/12 01:12:07;;;;;;;3.92;2.08;;;;;;;;;;5063090;28;20419;-75
2023/01/12 01:14:37;;;;;;;2.92;2.00;;;;;;;;;;5066331;28;20048;-76
2023/01/12 01:17:07;;;;;;;2.85;1.77;;;;;;;;;;5065703;28;20048;-75
2023/01/12 01:20:06;;;;;;;2.35;1.70;;;;;;;;;;5063393;28;20053;-75
2023/01/12 01:22:37;;;;;;;4.72;1.80;;;;;;;;;;5066328;28;20048;-75
2023/01/12 01:25:09;;;;;;;2.80;1.77;;;;;;;;;;5063509;28;20040;-76
2023/01/12 01:27:40;;;;;;;3.28;1.88;;;;;;;;;;5064216;28;20060;-76
2023/01/12 01:30:11;;;;;;;3.53;1.80;;;;;;;;;;5064894;28;20036;-76
2023/01/12 01:32:42;;;;;;;3.97;2.03;;;;;;;;;;5064691;28;20411;-75
2023/01/12 01:35:13;;;;;;;3.83;1.88;;;;;;;;;;5064278;28;20047;-75
2023/01/12 01:37:43;;;;;;;9.05;1.60;;;;;;;;;;5064810;28;20467;-76
2023/01/12 01:40:14;;;;;;;7.68;2.05;;;;;;;;;;5065893;28;20499;-75
2023/01/12 01:42:44;;;;;;;4.57;1.92;;;;;;;;;;5066565;28;20055;-75
2023/01/12 01:45:18;;;;;;;5.18;2.30;;;;;;;;;;5068937;28;20414;-75
2023/01/12 01:47:54;;;;;;;3.25;1.85;;;;;;;;;;5070392;28;20044;-76
2023/01/12 01:50:34;;;;;;;3.28;1.70;;;;;;;;;;5069359;28;20048;-76
2023/01/12 01:53:10;;;;;;;3.58;2.50;;;;;;;;;;5069727;28;20036;-76
2023/01/12 01:55:49;;;;;;;5.07;1.80;;;;;;;;;;5051023;28;20060;-75
2023/01/12 01:58:30;;;;;;;6.13;1.63;;;;;;;;;;5052067;28;20609;-75
2023/01/12 02:01:01;;;;;;;;;;;;;;;;;;5070450;28;20044;-75
2023/01/12 02:03:32;;;;;;;7.35;1.83;;;;;;;;;;5069585;28;19924;-76
2023/01/12 02:06:06;;;;;;;5.97;2.00;;;;;;;;;;5068146;28;20052;-76
2023/01/12 02:08:48;;;;;;;4.50;1.90;;;;;;;;;;5069742;28;20051;-76
2023/01/12 02:17:16;;;;;;;3.05;1.63;;;;;;;;;;5068640;28;20060;-75
2023/01/12 02:19:54;;;;;;;5.50;2.30;;;;;;;;;;5068614;28;20570;-76
2023/01/12 02:22:54;;;;;;;2.20;2.00;;;;;;;;;;5069315;28;20048;-76
2023/01/12 02:25:59;;;;;;;3.70;1.88;;;;;;;;;;5069600;28;20057;-76
2023/01/12 02:28:39;;;;;;;7.95;2.20;;;;;;;;;;5069405;28;20052;-76
2023/01/12 02:31:33;;;;;;;4.13;1.80;;;;;;;;;;5069461;28;20049;-76
2023/01/12 02:34:19;;;;;;;4.90;1.95;;;;;;;;;;5069170;28;20052;-76
2023/01/12 02:37:07;;;;;;;3.00;2.00;;;;;;;;;;5069170;28;20044;-76
2023/01/12 02:40:08;;;;;;;2.92;1.80;;;;;;;;;;5069885;28;20483;-75
2023/01/12 02:42:59;;;;;;;4.05;2.10;;;;;;;;;;5051232;28;20553;-76
2023/01/12 02:45:50;;;;;;;3.95;2.05;;;;;;;;;;5069309;28;20447;-76
2023/01/12 02:48:37;;;;;;;5.07;1.90;;;;;;;;;;5068790;28;20049;-76
2023/01/12 02:51:14;;;;;;;2.75;2.00;;;;;;;;;;5069114;28;20518;-76
2023/01/12 02:53:50;;;;;;;4.35;1.80;;;;;;;;;;5068066;28;20514;-77
2023/01/12 02:56:31;;;;;;;4.03;1.92;;;;;;;;;;5067912;28;20415;-77
2023/01/12 02:59:09;;;;;;;2.97;2.00;;;;;;;;;;5068749;28;20056;-76
2023/01/12 03:01:43;;;;;;;5.13;1.85;;;;;;;;;;5068622;28;20411;-76
2023/01/12 03:04:17;;;;;;;3.72;1.98;;;;;;;;;;5069399;28;20059;-76
2023/01/12 03:07:14;;;;;;;3.05;1.70;;;;;;;;;;5069425;28;20040;-76
2023/01/12 03:09:49;;;;;;;4.03;1.95;;;;;;;;;;5068369;28;20052;-76
2023/01/12 03:12:50;;;;;;;8.65;2.00;;;;;;;;;;5069361;28;20456;-76
2023/01/12 03:15:22;;;;;;;6.72;1.80;;;;;;;;;;5068949;28;20055;-76
2023/01/12 03:18:13;;;;;;;6.55;2.28;;;;;;;;;;5068677;28;20761;-76
2023/01/12 03:21:06;;;;;;;2.63;1.88;;;;;;;;;;5068755;28;20052;-76
2023/01/12 03:23:44;;;;;;;5.05;2.28;;;;;;;;;;5068414;28;20048;-76
2023/01/12 03:26:21;;;;;;;3.83;2.42;;;;;;;;;;5068814;28;20071;-76
2023/01/12 03:28:58;;;;;;;5.80;2.28;;;;;;;;;;5049527;28;20048;-76
2023/01/12 03:31:29;;;;;;;5.80;2.33;;;;;;;;;;5067654;28;20044;-76
2023/01/12 03:34:01;;;;;;;4.55;1.70;;;;;;;;;;5068076;28;20052;-76
2023/01/12 03:36:47;;;;;;;3.83;2.08;;;;;;;;;;5067723;28;20048;-76
2023/01/12 03:39:28;;;;;;;4.60;2.00;;;;;;;;;;5067634;28;20075;-76
2023/01/12 03:42:22;;;;;;;5.15;2.30;;;;;;;;;;5067559;28;20045;-75
2023/01/12 03:45:06;;;;;;;4.63;2.47;;;;;;;;;;5066936;28;20057;-76
2023/01/12 03:47:37;;;;;;;4.88;2.30;;;;;;;;;;5067445;28;20059;-76
2023/01/12 03:50:23;;;;;;;9.88;2.33;;;;;;;;;;5067035;28;20384;-76
2023/01/12 03:52:56;;;;;;;7.13;2.50;;;;;;;;;;5067296;28;20052;-77
2023/01/12 03:55:28;;;;;;;5.30;2.17;;;;;;;;;;5067859;28;20388;-76
2023/01/12 03:58:00;;;;;;;4.88;2.10;;;;;;;;;;5067806;28;20047;-76
2023/01/12 04:00:31;;;;;;;4.80;2.35;;;;;;;;;;5067397;28;20051;-76
2023/01/12 04:03:10;;;;;;;4.75;2.30;;;;;;;;;;5067429;28;20418;-76
2023/01/12 04:05:42;;;;;;;4.85;2.30;;;;;;;;;;5066569;28;20064;-75
2023/01/12 04:08:15;;;;;;;6.32;2.40;;;;;;;;;;5066581;28;20617;-75
2023/01/12 04:10:46;;;;;;;5.55;2.40;;;;;;;;;;5067073;28;20044;-75
2023/01/12 04:13:15;;;;;;;2.88;1.88;;;;;;;;;;5066515;28;20052;-75
2023/01/12 04:15:51;;;;;;;4.85;2.55;;;;;;;;;;5050145;28;20044;-75
2023/01/12 04:18:21;;;;;;;4.63;2.22;;;;;;;;;;5066370;28;20048;-75
2023/01/12 04:20:51;;;;;;;2.60;1.83;;;;;;;;;;5066228;28;20055;-75
2023/01/12 04:23:21;;;;;;;3.78;2.20;;;;;;;;;;5066419;28;20385;-75
2023/01/12 04:25:51;;;;;;;4.13;2.55;;;;;;;;;;5066621;28;20063;-75
2023/01/12 04:28:21;;;;;;;6.50;2.60;;;;;;;;;;5047551;28;20048;-75
2023/01/12 04:30:52;;;;;;;6.30;2.55;;;;;;;;;;5065630;28;20509;-75
2023/01/12 04:33:24;;;;;;;4.00;2.65;;;;;;;;;;5066220;28;20040;-75
2023/01/12 04:35:54;;;;;;;3.45;2.50;;;;;;;;;;5066798;28;20045;-75
2023/01/12 04:38:24;;;;;;;6.10;3.00;;;;;;;;;;5066298;28;20056;-75
2023/01/12 04:40:55;;;;;;;2.75;1.90;;;;;;;;;;5049235;28;20060;-76
2023/01/12 04:43:26;;;;;;;3.67;2.20;;;;;;;;;;5065961;28;20045;-75
2023/01/12 04:45:58;;;;;;;3.47;1.80;;;;;;;;;;5066308;28;20488;-76
2023/01/12 04:48:28;;;;;;;6.07;2.15;;;;;;;;;;5065992;28;20041;-75
2023/01/12 04:51:00;;;;;;;4.82;2.17;;;;;;;;;;5066049;28;20048;-75
2023/01/12 04:53:31;;;;;;;3.10;1.90;;;;;;;;;;5065760;28;20044;-75
2023/01/12 04:56:06;;;;;;;4.68;2.05;;;;;;;;;;5066048;28;20040;-76
2023/01/12 04:58:37;;;;;;;7.00;2.47;;;;;;;;;;5066364;28;20047;-75
2023/01/12 05:01:13;;;;;;;4.07;2.50;;;;;;;;;;5047642;28;20057;-75
2023/01/12 05:03:45;;;;;;;5.40;2.55;;;;;;;;;;5066259;28;20040;-75
2023/01/12 05:06:15;;;;;;;4.45;2.58;;;;;;;;;;5066453;28;20407;-76
2023/01/12 05:11:34;;;;;;;7.07;2.67;;;;;;;;;;5065687;28;20059;-76
2023/01/12 05:14:05;;;;;;;5.03;3.00;;;;;;;;;;5047900;28;20057;-75
2023/01/12 05:16:35;;;;;;;5.85;2.95;;;;;;;;;;5048018;28;20049;-76
2023/01/12 05:19:12;;;;;;;10.88;3.13;;;;;;;;;;5067939;28;20407;-75
2023/01/12 05:21:44;;;;;;;5.00;2.90;;;;;;;;;;5070440;28;20056;-76
2023/01/12 05:24:16;;;;;;;4.35;2.75;;;;;;;;;;5053048;28;20044;-75
2023/01/12 05:26:46;;;;;;;5.20;3.00;;;;;;;;;;5070472;28;20384;-75
2023/01/12 05:29:16;;;;;;;5.65;2.47;;;;;;;;;;5069694;28;20146;-75
2023/01/12 05:31:48;;;;;;;4.80;2.72;;;;;;;;;;5052188;28;20672;-76
2023/01/12 05:34:19;;;;;;;7.60;3.10;;;;;;;;;;5069426;28;20399;-76
2023/01/12 05:36:50;;;;;;;10.20;3.42;;;;;;;;;;5069904;28;20574;-76
2023/01/12 05:39:22;;;;;;;7.28;3.17;;;;;;;;;;5052416;28;20048;-75
2023/01/12 05:44:42;;;;;;;8.85;2.97;;;;;;;;;;5069157;28;20048;-75
2023/01/12 05:47:12;;;;;;;3.50;2.88;;;;;;;;;;5051406;28;20076;-76
2023/01/12 05:49:42;;;;;;;3.65;2.58;;;;;;;;;;5069263;28;20605;-76
2023/01/12 05:52:13;;;;;;;5.65;3.10;;;;;;;;;;5068279;28;20056;-75
2023/01/12 05:54:44;;;;;;;3.40;2.60;;;;;;;;;;5069866;28;20056;-76
2023/01/12 05:57:13;;;;;;;5.57;2.90;;;;;;;;;;5069797;28;20036;-76
2023/01/12 05:59:44;;;;;;;4.72;3.10;;;;;;;;;;5069141;28;20055;-76
2023/01/12 06:02:16;;;;;;;5.25;3.05;;;;;;;;;;5069974;28;20041;-75
2023/01/12 06:04:47;;;;;;;5.53;3.40;;;;;;;;;;5068979;28;20051;-76
2023/01/12 06:07:17;;;;;;;4.53;2.45;;;;;;;;;;5068901;28;20063;-75
2023/01/12 06:09:48;;;;;;;6.57;2.60;;;;;;;;;;5069335;28;20036;-76
2023/01/12 06:15:14;;;;;;;5.53;3.10;;;;;;;;;;5068818;28;20818;-76
2023/01/12 06:17:45;;;;;;;4.80;3.33;;;;;;;;;;5068614;28;20051;-75
2023/01/12 06:20:16;;;;;;;5.03;3.22;;;;;;;;;;5068685;28;20041;-75
2023/01/12 06:22:46;;;;;;;4.88;2.28;;;;;;;;;;5068733;28;20068;-75
2023/01/12 06:25:17;;;;;;;4.75;2.63;;;;;;;;;;5068988;28;20056;-75
2023/01/12 06:27:47;;;;;;;4.22;2.85;;;;;;;;;;5068960;28;20040;-75
2023/01/12 06:30:17;;;;;;;4.53;2.80;;;;;;;;;;5067504;28;20040;-76
2023/01/12 06:32:48;;;;;;;6.03;3.33;;;;;;;;;;5068697;28;20060;-76
2023/01/12 06:35:19;;;;;;;5.57;3.15;;;;;;;;;;5068734;28;20044;-76
2023/01/12 06:37:54;;;;;;;7.07;3.10;;;;;;;;;;5067915;28;20048;-75
2023/01/12 06:40:24;;;;;;;7.72;2.60;;;;;;;;;;5068787;28;20055;-76
2023/01/12 06:42:54;;;;;;;5.70;3.30;;;;;;;;;;5050904;28;20060;-76
2023/01/12 06:45:26;;;;;;;7.30;3.53;;;;;;;;;;5067919;28;20527;-76
2023/01/12 06:47:57;;;;;;;4.00;2.80;;;;;;;;;;5051228;28;20388;-75
2023/01/12 06:50:28;;;;;;;4.45;2.92;;;;;;;;;;5068366;28;20568;-75
2023/01/12 06:53:02;;;;;;;8.77;3.08;;;;;;;;;;5068195;28;20048;-76
2023/01/12 06:55:33;;;;;;;5.75;2.72;;;;;;;;;;5068589;28;20041;-76
2023/01/12 06:58:04;;;;;;;6.57;3.58;;;;;;;;;;5050252;28;20424;-75
2023/01/12 07:00:35;;;;;;;4.80;3.20;;;;;;;;;;5067546;28;20045;-75
2023/01/12 07:03:04;;;;;;;5.05;3.22;;;;;;;;;;5068096;28;20044;-75
2023/01/12 07:05:35;;;;;;;5.82;2.83;;;;;;;;;;5068424;28;20067;-75
2023/01/12 07:08:05;;;;;;;6.07;2.53;;;;;;;;;;5068362;28;20044;-76
2023/01/12 07:10:36;;;;;;;5.97;3.20;;;;;;;;;;5067957;28;20048;-76
2023/01/12 07:13:06;;;;;;;5.13;3.33;;;;;;;;;;5067505;28;20048;-76
2023/01/12 07:15:37;;;;;;;4.90;2.55;;;;;;;;;;5067464;28;20047;-76
2023/01/12 07:18:08;;;;;;;7.88;3.13;;;;;;;;;;5068213;28;20483;-76
2023/01/12 07:20:37;;;;;;;9.98;3.30;;;;;;;;;;5068249;28;20037;-75
2023/01/12 07:23:08;;;;;;;4.65;3.00;;;;;;;;;;5067760;28;20040;-76
2023/01/12 07:25:39;;;;;;;5.43;3.28;;;;;;;;;;5067444;28;20057;-75
2023/01/12 07:28:09;;;;;;;10.15;3.67;;;;;;;;;;5067298;28;20041;-75
2023/01/12 07:30:39;;;;;;;5.18;3.05;;;;;;;;;;5067693;28;20056;-75
2023/01/12 07:33:13;;;;;;;3.90;3.08;;;;;;;;;;5067744;28;20592;-75
2023/01/12 07:35:47;;;;;;;5.35;3.30;;;;;;;;;;5067990;28;20060;-75
2023/01/12 07:38:18;;;;;;;6.32;3.05;;;;;;;;;;5067689;28;20049;-75
2023/01/12 07:40:49;;;;;;;7.32;3.38;;;;;;;;;;5066375;28;20502;-76
2023/01/12 07:43:19;;;;;;;7.13;2.80;;;;;;;;;;5067484;28;20052;-75
2023/01/12 07:45:49;;;;;;;5.38;2.67;;;;;;;;;;5067139;28;20059;-75
2023/01/12 07:48:20;;;;;;;4.93;3.10;;;;;;;;;;5067034;28;20559;-75
2023/01/12 07:50:51;;;;;;;5.68;3.15;;;;;;;;;;5067000;28;20044;-75
2023/01/12 07:53:22;;;;;;;5.63;3.40;;;;;;;;;;5067189;28;20514;-75
2023/01/12 07:55:53;;;;;;;4.72;3.15;;;;;;;;;;5068145;28;20510;-75
2023/01/12 07:58:26;;;;;;;3.95;2.88;;;;;;;;;;5067668;28;20044;-76
2023/01/12 08:00:59;;;;;;;4.55;3.28;;;;;;;;;;5067078;28;20044;-75
2023/01/12 08:03:31;;;;;;;6.30;2.75;;;;;;;;;;5066685;28;20430;-75
2023/01/12 08:06:01;;;;;;;6.53;2.75;;;;;;;;;;5066622;28;20052;-75
2023/01/12 08:08:32;;;;;;;5.03;3.17;;;;;;;;;;5067764;28;20044;-75
2023/01/12 08:11:07;;;;;;;6.28;2.75;;;;;;;;;;5066909;28;20036;-75
2023/01/12 08:13:39;;;;;;;6.28;2.67;;;;;;;;;;5049409;28;20518;-75
2023/01/12 08:16:18;;;;;;;5.13;3.35;;;;;;;;;;5066567;28;20036;-75
2023/01/12 08:19:03;;;;;;;3.40;2.70;;;;;;;;;;5066978;28;20052;-75
2023/01/12 08:21:44;;;;;;;3.92;2.67;;;;;;;;;;5067632;28;20055;-76
2023/01/12 08:24:19;;;;;;;6.50;3.10;;;;;;;;;;5066925;28;20040;-75
2023/01/12 08:26:53;;;;;;;4.32;3.00;;;;;;;;;;5066859;28;20056;-76
2023/01/12 08:29:38;;;;;;;5.55;3.13;;;;;;;;;;5066658;28;20076;-75
2023/01/12 08:32:12;;;;;;;;;;;;;;;;;;5066701;28;20078;-75
2023/01/12 08:34:46;;;;;;;5.40;3.08;;;;;;;;;;5066488;28;19928;-75
2023/01/12 08:37:22;;;;;;;3.45;2.90;;;;;;;;;;5066592;28;20048;-75
2023/01/12 08:39:52;;;;;;;4.55;3.00;;;;;;;;;;5066530;28;20158;-75
2023/01/12 08:42:25;;;;;;;5.15;2.78;;;;;;;;;;5066369;28;20519;-76
2023/01/12 08:44:59;;;;;;;5.13;3.20;;;;;;;;;;5066608;28;20483;-76
2023/01/12 08:47:30;;;;;;;4.20;2.83;;;;;;;;;;5066218;28;20519;-75
2023/01/12 08:50:01;;;;;;;6.28;2.92;;;;;;;;;;5066675;28;20048;-75
2023/01/12 08:52:34;;;;;;;6.03;3.05;;;;;;;;;;5066058;28;20052;-75
2023/01/12 08:55:04;;;;;;;4.75;3.42;;;;;;;;;;5066480;28;20044;-75
2023/01/12 08:57:34;;;;;;;4.28;3.55;;;;;;;;;;5066530;28;20053;-75
2023/01/12 09:00:05;;;;;;;7.32;3.40;;;;;;;;;;5048762;28;20044;-76
2023/01/12 09:02:36;;;;;;;5.25;3.28;;;;;;;;;;5066298;28;20044;-76
2023/01/12 09:05:07;;;;;;;5.10;3.10;;;;;;;;;;5048498;28;20052;-77
2023/01/12 09:07:38;;;;;;;4.20;3.42;;;;;;;;;;5066288;28;20052;-76
2023/01/12 09:10:08;;;;;;;5.70;3.42;;;;;;;;;;5047206;28;20059;-75
2023/01/12 09:12:38;;;;;;;6.78;3.35;;;;;;;;;;5065883;28;20055;-75
2023/01/12 09:15:09;;;;;;;8.60;3.22;;;;;;;;;;5066336;28;20052;-75
2023/01/12 09:17:39;;;;;;;4.60;3.22;;;;;;;;;;5065832;28;20049;-75
2023/01/12 09:20:11;;;;;;;4.25;3.40;;;;;;;;;;5065988;28;20147;-76
2023/01/12 09:22:41;;;;;;;4.80;3.28;;;;;;;;;;5065542;28;20411;-75
2023/01/12 09:25:11;;;;;;;5.47;3.17;;;;;;;;;;5066841;28;20415;-76
2023/01/12 09:27:42;;;;;;;4.95;2.95;;;;;;;;;;5066601;28;20557;-76
2023/01/12 09:30:13;;;;;;;8.25;3.47;;;;;;;;;;5065897;28;20044;-76
2023/01/12 09:32:43;;;;;;;4.72;3.50;;;;;;;;;;5065846;28;20049;-75
2023/01/12 09:35:14;;;;;;;5.78;4.05;;;;;;;;;;5031511;28;20415;-76
2023/01/12 09:37:45;;;;;;;8.43;3.35;;;;;;;;;;5065922;28;20381;-76
2023/01/12 09:40:18;;;;;;;3.65;2.70;;;;;;;;;;5065830;28;20076;-76
2023/01/12 09:48:31;;;;;;;4.65;3.17;;;;;;;;;;5065839;28;20071;-77
2023/01/12 09:51:13;;;;;;;6.93;2.90;;;;;;;;;;5066194;28;20044;-76
2023/01/12 09:53:44;;;;;;;7.90;2.80;;;;;;;;;;5065906;28;20119;-75
2023/01/12 09:56:24;;;;;;;6.53;3.03;;;;;;;;;;5066052;28;20472;-76
2023/01/12 09:59:15;;;;;;;3.83;2.80;;;;;;;;;;5065785;28;20044;-76
2023/01/12 10:01:47;;;;;;;4.97;2.63;;;;;;;;;;5065602;28;20067;-76
2023/01/12 10:04:18;;;;;;;6.43;2.50;;;;;;;;;;5065902;28;20066;-75
2023/01/12 10:06:49;;;;;;;4.25;2.60;;;;;;;;;;5069538;28;20056;-76
2023/01/12 10:09:21;;;;;;;4.13;3.05;;;;;;;;;;5068935;28;20055;-79
2023/01/12 10:12:18;;;;;;;4.20;2.88;;;;;;;;;;5069546;28;20119;-76
2023/01/12 10:14:57;;;;;;;3.25;2.85;;;;;;;;;;5066797;28;20059;-76
2023/01/12 10:17:51;;;;;;;6.60;3.00;;;;;;;;;;5069205;28;20507;-76
2023/01/12 10:20:38;;;;;;;4.72;2.85;;;;;;;;;;5051709;28;20041;-76
2023/01/12 10:23:09;;;;;;;5.30;3.05;;;;;;;;;;5068961;28;20055;-76
2023/01/12 10:25:56;;;;;;;6.10;2.30;;;;;;;;;;5069330;28;20044;-78
2023/01/12 10:28:28;;;;;;;;;;;;;;;;;;5069242;28;20064;-75
2023/01/12 10:31:00;;;;;;;6.40;3.10;;;;;;;;;;5068897;28;19925;-76
2023/01/12 10:33:33;;;;;;;6.43;2.90;;;;;;;;;;5068914;28;20048;-78
2023/01/12 10:36:10;;;;;;;4.57;2.40;;;;;;;;;;5068982;28;20048;-76
2023/01/12 10:39:02;;;;;;;5.38;3.08;;;;;;;;;;5068555;28;20522;-76
2023/01/12 10:41:34;;;;;;;7.65;3.70;;;;;;;;;;5068536;28;20047;-76
2023/01/12 10:44:15;;;;;;;2.95;2.20;;;;;;;;;;5067936;28;20530;-76
2023/01/12 10:47:09;;;;;;;6.88;2.80;;;;;;;;;;5068606;28;20036;-76
2023/01/12 10:49:40;;;;;;;3.92;2.33;;;;;;;;;;5068777;28;20134;-76
2023/01/12 10:52:34;;;;;;;10.73;2.53;;;;;;;;;;5068586;28;20067;-77
2023/01/12 10:55:04;;;;;;;;;;;;;;;;;;5049949;28;20511;-77
2023/01/12 10:57:34;;;;;;;2.58;2.30;;;;;;;;;;5068324;28;19924;-76
2023/01/12 11:00:05;;;;;;;8.02;3.03;;;;;;;;;;5068141;28;20044;-76
2023/01/12 11:02:45;;;;;;;6.88;2.65;;;;;;;;;;5067972;28;20044;-76
2023/01/12 11:05:37;;;;;;;6.05;2.40;;;;;;;;;;5067960;28;20423;-76
2023/01/12 11:08:28;;;;;;;3.15;1.95;;;;;;;;;;5067584;28;20048;-77
2023/01/12 11:11:15;;;;;;;3.55;2.25;;;;;;;;;;5067781;28;20052;-79
2023/01/12 11:13:46;;;;;;;4.68;2.10;;;;;;;;;;5068024;28;20068;-77
2023/01/12 11:16:23;;;;;;;2.85;2.35;;;;;;;;;;5048387;28;20071;-75
2023/01/12 11:19:02;;;;;;;8.70;2.60;;;;;;;;;;5049988;28;20044;-76
2023/01/12 11:21:37;;;;;;;18.33;5.05;;;;;;;;;;5067643;28;20455;-76
2023/01/12 11:24:40;;;;;;;6.68;2.08;;;;;;;;;;5067869;28;20060;-76
2023/01/12 11:27:22;;;;;;;3.65;1.90;;;;;;;;;;5067461;28;20102;-79
2023/01/12 11:29:55;;;;;;;3.92;1.80;;;;;;;;;;5067525;28;20041;-77
2023/01/12 11:32:41;;;;;;;2.30;1.45;;;;;;;;;;5047889;28;20053;-77
2023/01/12 11:35:15;;;;;;;4.20;1.73;;;;;;;;;;5048864;28;20040;-78
2023/01/12 11:37:47;;;;;;;3.53;1.80;;;;;;;;;;5065950;28;20044;-77
2023/01/12 11:40:25;;;;;;;2.22;1.80;;;;;;;;;;5066005;28;20072;-77
2023/01/12 11:46:03;;;;;;;4.03;2.47;;;;;;;;;;5066391;28;20048;-76
2023/01/12 11:48:48;;;;;;;4.20;2.00;;;;;;;;;;5067134;28;20072;-78
2023/01/12 11:51:18;;;;;;;8.60;2.58;;;;;;;;;;5066779;28;20407;-78
2023/01/12 11:53:49;;;;;;;6.43;2.65;;;;;;;;;;5067003;28;20503;-79
2023/01/12 11:56:35;;;;;;;4.30;2.65;;;;;;;;;;5067724;28;20044;-77
2023/01/12 11:59:18;;;;;;;4.20;2.80;;;;;;;;;;5066748;28;20044;-76
2023/01/12 12:02:09;;;;;;;5.68;2.70;;;;;;;;;;5067331;28;20058;-77
2023/01/12 12:04:54;;;;;;;6.70;2.20;;;;;;;;;;5066747;28;20040;-79
2023/01/12 12:07:31;;;;;;;5.80;2.33;;;;;;;;;;5067112;28;20060;-79
2023/01/12 12:10:24;;;;;;;3.47;2.25;;;;;;;;;;5066238;28;20127;-79
2023/01/12 12:12:58;;;;;;;4.75;2.20;;;;;;;;;;5048630;28;20044;-74
2023/01/12 12:15:56;;;;;;;4.97;1.90;;;;;;;;;;5067025;28;20044;-77
2023/01/12 12:18:36;;;;;;;5.03;1.90;;;;;;;;;;5066710;28;20063;-77
2023/01/12 12:21:10;;;;;;;6.97;3.08;;;;;;;;;;5067425;28;20049;-77
2023/01/12 12:24:02;;;;;;;4.53;2.50;;;;;;;;;;5067024;28;20408;-74
2023/01/12 12:27:11;;;;;;;9.05;2.28;;;;;;;;;;5066677;28;20060;-76
2023/01/12 12:30:23;;;;;;;11.35;2.50;;;;;;;;;;5066086;28;20075;-75
2023/01/12 12:33:20;;;;;;;3.67;1.98;;;;;;;;;;5033846;28;20052;-76
2023/01/12 12:36:16;;;;;;;3.60;1.90;;;;;;;;;;5039625;28;20072;-76
2023/01/12 12:39:29;;;;;;;5.78;2.30;;;;;;;;;;5066850;28;20060;-76
2023/01/12 12:45:59;;;;;;;10.75;2.63;;;;;;;;;;5066557;28;20530;-75
2023/01/12 12:48:36;;;;;;;4.88;2.28;;;;;;;;;;5059411;28;20063;-75
2023/01/12 12:51:10;;;;;;;6.57;1.75;;;;;;;;;;5031552;28;20443;-75
2023/01/12 12:53:48;;;;;;;3.97;2.00;;;;;;;;;;5047833;28;20930;-76
2023/01/12 12:56:23;;;;;;;3.55;1.90;;;;;;;;;;5065958;28;20071;-76
2023/01/12 12:58:56;;;;;;;7.45;3.67;;;;;;;;;;5066856;28;20049;-75
2023/01/12 13:01:29;;;;;;;6.50;2.15;;;;;;;;;;5066368;28;20041;-75
2023/01/12 13:04:02;;;;;;;6.57;2.45;;;;;;;;;;5066111;28;20040;-76
2023/01/12 13:06:32;;;;;;;3.97;2.20;;;;;;;;;;5065973;28;20506;-75
2023/01/12 13:09:11;;;;;;;4.70;2.03;;;;;;;;;;5066198;28;20063;-76
2023/01/12 13:12:16;;;;;;;4.72;2.13;;;;;;;;;;5066394;28;20040;-76
2023/01/12 13:15:18;;;;;;;7.35;3.75;;;;;;;;;;5065820;28;20044;-77
2023/01/12 13:17:51;;;;;;;5.15;1.92;;;;;;;;;;5044058;28;20052;-77
2023/01/12 13:20:25;;;;;;;3.47;1.75;;;;;;;;;;5065692;28;20038;-76
2023/01/12 13:22:55;;;;;;;4.28;1.77;;;;;;;;;;5065467;28;20041;-75
2023/01/12 13:25:26;;;;;;;5.53;1.90;;;;;;;;;;5048209;28;20075;-77
2023/01/12 13:28:00;;;;;;;5.30;1.67;;;;;;;;;;5065361;28;20049;-78
2023/01/12 13:30:30;;;;;;;3.13;1.42;;;;;;;;;;5065668;28;20045;-77
2023/01/12 13:33:15;;;;;;;4.72;1.65;;;;;;;;;;5065259;28;20060;-76
2023/01/12 13:35:46;;;;;;;6.65;2.10;;;;;;;;;;5047833;28;20056;-76
2023/01/12 13:38:54;;;;;;;7.82;2.10;;;;;;;;;;5064866;28;20064;-77
2023/01/12 13:44:54;;;;;;;4.18;1.95;;;;;;;;;;4987022;28;20058;-77
2023/01/12 13:47:32;;;;;;;3.45;1.30;;;;;;;;;;4971437;28;20073;-77
2023/01/12 13:50:03;;;;;;;4.82;1.35;;;;;;;;;;5036951;28;20506;-76
2023/01/12 13:52:38;;;;;;;2.10;1.20;;;;;;;;;;5051077;28;20102;-77
2023/01/12 13:55:20;;;;;;;3.42;1.60;;;;;;;;;;5051832;28;20048;-78
2023/01/12 13:58:02;;;;;;;;;;;;;;;;;;5051475;28;20419;-76
2023/01/12 14:00:34;;;;;;;4.35;1.75;;;;;;;;;;5034786;28;20411;-78
2023/01/12 14:03:06;;;;;;;4.90;1.50;;;;;;;;;;5069067;28;20507;-79
2023/01/12 14:05:50;;;;;;;3.15;1.63;;;;;;;;;;5051135;28;20072;-78
2023/01/12 14:08:51;;;;;;;9.40;1.63;;;;;;;;;;5050817;28;20063;-78
2023/01/12 14:11:57;;;;;;;3.22;1.55;;;;;;;;;;5045482;28;20056;-77
2023/01/12 14:17:48;;;;;;;5.97;1.48;;;;;;;;;;5049607;28;20052;-81
2023/01/12 14:20:25;;;;;;;3.72;1.40;;;;;;;;;;5049499;28;20057;-77
2023/01/12 14:23:18;;;;;;;5.75;1.70;;;;;;;;;;5049643;28;20060;-78
2023/01/12 14:26:13;;;;;;;7.43;1.45;;;;;;;;;;5050504;28;20063;-79
2023/01/12 14:28:52;;;;;;;4.20;1.48;;;;;;;;;;5047167;28;20049;-81
2023/01/12 14:31:30;;;;;;;3.78;1.52;;;;;;;;;;5047821;28;20049;-77
2023/01/12 14:34:03;;;;;;;3.78;1.30;;;;;;;;;;5048273;28;20049;-77
2023/01/12 14:36:44;;;;;;;2.70;1.20;;;;;;;;;;5031765;28;20056;-77
2023/01/12 14:39:19;;;;;;;4.68;1.60;;;;;;;;;;5045916;28;20053;-77
2023/01/12 14:47:41;;;;;;;3.40;1.30;;;;;;;;;;5048256;28;20041;-77
2023/01/12 14:50:21;;;;;;;5.03;1.20;;;;;;;;;;5048161;28;20052;-77
2023/01/12 14:52:53;;;;;;;4.47;1.35;;;;;;;;;;5046755;28;20526;-76
2023/01/12 14:55:40;;;;;;;3.17;1.33;;;;;;;;;;5031440;28;20053;-77
2023/01/12 14:58:20;;;;;;;3.83;1.40;;;;;;;;;;5047999;28;20053;-75
2023/01/12 15:00:50;;;;;;;4.13;1.52;;;;;;;;;;5048382;28;20617;-78
2023/01/12 15:03:25;;;;;;;3.42;1.63;;;;;;;;;;5046418;28;20519;-76
2023/01/12 15:06:15;;;;;;;6.25;1.30;;;;;;;;;;5047194;28;20049;-77
2023/01/12 15:08:57;;;;;;;4.07;1.42;;;;;;;;;;5045700;28;20516;-77
2023/01/12 15:11:37;;;;;;;12.23;1.40;;;;;;;;;;5045693;28;20060;-76
2023/01/12 15:14:23;;;;;;;3.33;1.23;;;;;;;;;;5046817;28;20056;-77
2023/01/12 15:25:40;;;;;;;3.95;1.70;;;;;;;;;;5046158;28;20417;-76
2023/01/12 15:28:10;;;;;;;2.97;1.33;;;;;;;;;;5045534;28;20507;-76
2023/01/12 15:30:41;;;;;;;4.22;1.63;;;;;;;;;;5048824;28;20534;-76
2023/01/12 15:33:14;;;;;;;4.07;1.65;;;;;;;;;;5045801;28;20064;-75
2023/01/12 15:35:46;;;;;;;3.35;1.70;;;;;;;;;;5046487;28;20408;-76
2023/01/12 15:38:17;;;;;;;2.65;1.35;;;;;;;;;;5029902;28;20048;-76
2023/01/12 15:40:47;;;;;;;7.85;1.67;;;;;;;;;;5046264;28;20463;-77
2023/01/12 15:43:19;;;;;;;6.57;1.60;;;;;;;;;;5047320;28;20049;-74
2023/01/12 15:45:53;;;;;;;3.67;1.35;;;;;;;;;;5045551;28;20056;-75
2023/01/12 15:48:23;;;;;;;8.52;1.40;;;;;;;;;;5045448;28;20053;-75
2023/01/12 15:50:54;;;;;;;4.05;1.42;;;;;;;;;;5045735;28;20075;-75
2023/01/12 15:53:26;;;;;;;5.35;1.98;;;;;;;;;;5045527;28;20057;-74
2023/01/12 15:55:58;;;;;;;2.85;1.55;;;;;;;;;;5047823;28;20059;-77
2023/01/12 15:58:29;;;;;;;3.90;1.60;;;;;;;;;;5046285;28;20633;-75
2023/01/12 16:00:59;;;;;;;7.57;3.55;;;;;;;;;;5047828;28;20534;-75
2023/01/12 16:03:30;;;;;;;5.82;1.42;;;;;;;;;;5047227;28;20053;-75
2023/01/12 16:06:36;;;;;;;3.38;1.30;;;;;;;;;;5046789;28;20045;-78
2023/01/12 16:09:06;;;;;;;;;;;;;;;;;;5045431;28;20049;-74
2023/01/12 16:11:35;;;;;;;5.75;1.80;;;;;;;;;;5046734;28;19924;-78
2023/01/12 16:14:07;;;;;;;4.30;2.35;;;;;;;;;;5047349;28;20048;-77
2023/01/12 16:16:39;;;;;;;4.90;1.42;;;;;;;;;;5044634;28;20056;-75
2023/01/12 16:19:11;;;;;;;6.75;1.83;;;;;;;;;;5047109;28;20053;-75
2023/01/12 16:21:44;;;;;;;5.03;1.23;;;;;;;;;;5046952;28;20044;-76
2023/01/12 16:24:15;;;;;;;4.35;1.30;;;;;;;;;;5046593;28;20526;-77
2023/01/12 16:26:47;;;;;;;4.05;1.20;;;;;;;;;;5050195;28;20052;-76
2023/01/12 16:29:18;;;;;;;8.35;2.08;;;;;;;;;;5066568;28;20575;-78
2023/01/12 16:31:48;;;;;;;3.65;1.20;;;;;;;;;;5048486;28;20052;-78
2023/01/12 16:34:22;;;;;;;3.85;1.58;;;;;;;;;;5067182;28;20407;-77